Time;durP1;ratioP1;P1;durP2;ratioP2;P2;SDS_P1;SDS_P2;PMS_P1;PMS_P2;Temp;Humidity;BMP_temperature;BMP_pressure;BME280_temperature;BME280_humidity;BME280_pressure;Samples;Min_cycle;Max_cycle;Signal;HPM_P1;HPM_P2
2023/12/23 00:02:25;;;;;;;7.03;1.20;;;;;;;7.61;100.00;100450.94;5027965;28;20496;-68
2023/12/23 00:04:50;;;;;;;3.78;1.00;;;;;;;7.60;100.00;100454.34;5028518;28;20030;-69
2023/12/23 00:07:16;;;;;;;4.45;1.20;;;;;;;7.60;100.00;100455.22;5027749;28;20038;-68
2023/12/23 00:09:41;;;;;;;7.97;1.10;;;;;;;7.60;100.00;100457.78;5024624;28;20041;-68
2023/12/23 00:12:10;;;;;;;10.00;1.30;;;;;;;7.60;100.00;100462.06;5028878;28;20068;-68
2023/12/23 00:14:36;;;;;;;1.02;0.60;;;;;;;7.61;100.00;100467.22;5055489;28;20026;-68
2023/12/23 00:17:02;;;;;;;5.78;1.10;;;;;;;7.62;100.00;100468.94;5025579;28;20021;-67
2023/12/23 00:19:28;;;;;;;3.05;1.00;;;;;;;7.62;100.00;100453.53;5024694;28;20034;-68
2023/12/23 00:21:54;;;;;;;2.95;0.93;;;;;;;7.58;100.00;100451.78;5023151;28;20064;-68
2023/12/23 00:24:20;;;;;;;4.55;1.40;;;;;;;7.59;100.00;100456.09;5025597;28;20060;-67
2023/12/23 00:26:45;;;;;;;6.13;1.10;;;;;;;7.68;100.00;100444.94;5019245;28;20029;-67
2023/12/23 00:29:11;;;;;;;3.40;1.00;;;;;;;7.68;100.00;100458.66;5025995;28;20026;-68
2023/12/23 00:31:36;;;;;;;2.85;0.80;;;;;;;7.73;100.00;100464.63;5026321;28;20373;-68
2023/12/23 00:34:02;;;;;;;3.63;1.05;;;;;;;7.75;100.00;100455.19;5026467;28;20040;-68
2023/12/23 00:36:27;;;;;;;5.13;1.00;;;;;;;7.73;100.00;100466.34;5020737;28;20041;-67
2023/12/23 00:38:53;;;;;;;4.05;0.90;;;;;;;7.73;100.00;100469.78;5057489;28;20037;-68
2023/12/23 00:41:18;;;;;;;4.05;1.23;;;;;;;7.68;100.00;100468.09;5020876;28;20401;-69
2023/12/23 00:43:43;;;;;;;3.17;1.20;;;;;;;7.67;100.00;100480.09;5021354;28;20044;-68
2023/12/23 00:46:09;;;;;;;5.80;1.15;;;;;;;7.63;100.00;100475.78;5056895;28;20400;-68
2023/12/23 00:48:34;;;;;;;5.20;0.90;;;;;;;7.63;100.00;100472.34;5026892;28;20136;-68
2023/12/23 00:51:00;;;;;;;4.10;1.00;;;;;;;7.64;100.00;100477.50;5022962;28;20078;-68
2023/12/23 00:53:26;;;;;;;5.60;1.00;;;;;;;7.67;100.00;100466.34;5040556;28;20045;-68
2023/12/23 00:55:52;;;;;;;1.85;0.77;;;;;;;7.68;100.00;100468.94;5026731;28;20332;-68
2023/12/23 00:58:18;;;;;;;5.35;0.90;;;;;;;7.67;100.00;100468.94;5000908;28;20068;-68
2023/12/23 01:00:43;;;;;;;4.50;0.90;;;;;;;7.72;100.00;100469.78;5051370;28;20569;-67
2023/12/23 01:03:09;;;;;;;3.70;0.90;;;;;;;7.73;100.00;100471.50;5024988;28;20065;-68
2023/12/23 01:05:34;;;;;;;3.47;0.98;;;;;;;7.77;100.00;100465.50;5020007;28;20034;-67
2023/12/23 01:07:59;;;;;;;4.43;1.10;;;;;;;7.75;100.00;100464.63;5023647;28;20041;-68
2023/12/23 01:10:26;;;;;;;2.67;0.82;;;;;;;7.74;100.00;100473.22;5024878;28;20033;-67
2023/12/23 01:12:52;;;;;;;5.43;1.20;;;;;;;7.72;100.00;100472.34;5025187;28;20034;-67
2023/12/23 01:15:18;;;;;;;4.60;1.05;;;;;;;7.70;100.00;100463.78;5023401;28;20048;-67
2023/12/23 01:17:43;;;;;;;3.70;1.10;;;;;;;7.66;100.00;100473.22;5023364;28;20045;-68
2023/12/23 01:20:09;;;;;;;4.20;1.20;;;;;;;7.63;100.00;100474.94;5021588;28;20022;-67
2023/12/23 01:22:35;;;;;;;3.95;1.13;;;;;;;7.62;100.00;100468.09;5025518;28;20480;-67
2023/12/23 01:25:01;;;;;;;7.68;1.00;;;;;;;7.61;100.00;100472.38;5026274;28;20044;-67
2023/12/23 01:27:26;;;;;;;5.75;1.75;;;;;;;7.59;100.00;100474.09;5042701;28;20132;-67
2023/12/23 01:29:51;;;;;;;8.85;1.25;;;;;;;7.59;100.00;100471.53;5019812;28;20179;-67
2023/12/23 01:32:17;;;;;;;10.07;1.60;;;;;;;7.56;100.00;100465.53;5029078;28;20055;-67
2023/12/23 01:34:42;;;;;;;11.88;1.60;;;;;;;7.57;100.00;100478.38;5043100;28;20485;-67
2023/12/23 01:37:08;;;;;;;7.13;1.40;;;;;;;7.56;100.00;100486.09;5025472;28;20508;-68
2023/12/23 01:39:33;;;;;;;10.20;2.75;;;;;;;7.54;100.00;100490.38;5051009;28;20049;-68
2023/12/23 01:41:59;;;;;;;7.63;1.40;;;;;;;7.52;100.00;100487.81;5025601;28;20053;-68
2023/12/23 01:44:24;;;;;;;6.03;1.38;;;;;;;7.46;100.00;100477.53;5023876;28;20760;-68
2023/12/23 01:46:52;;;;;;;9.40;2.22;;;;;;;7.44;100.00;100480.13;5018790;28;20040;-68
2023/12/23 01:49:19;;;;;;;12.40;2.47;;;;;;;7.37;100.00;100478.38;5025603;28;20045;-67
2023/12/23 01:51:45;;;;;;;9.52;2.00;;;;;;;7.35;100.00;100482.69;5024287;28;20116;-68
2023/12/23 01:54:11;;;;;;;8.32;1.65;;;;;;;7.35;100.00;100485.25;5025284;28;20124;-68
2023/12/23 01:56:37;;;;;;;5.50;1.65;;;;;;;7.36;100.00;100483.50;5023899;28;20064;-68
2023/12/23 01:59:03;;;;;;;3.88;1.65;;;;;;;7.36;100.00;100476.66;5055156;28;20640;-68
2023/12/23 02:01:32;;;;;;;6.70;1.48;;;;;;;7.36;100.00;100475.78;5050799;28;20025;-68
2023/12/23 02:03:57;;;;;;;9.65;1.85;;;;;;;7.37;100.00;100486.09;5026175;28;20026;-67
2023/12/23 02:06:23;;;;;;;6.90;1.33;;;;;;;7.37;100.00;100473.25;5024286;28;20140;-68
2023/12/23 02:08:49;;;;;;;7.38;1.45;;;;;;;7.37;100.00;100468.09;5019618;28;20041;-68
2023/12/23 02:11:47;;;;;;;3.38;1.02;;;;;;;7.38;100.00;100469.81;5023369;28;20033;-68
2023/12/23 02:14:24;;;;;;;3.80;1.17;;;;;;;7.39;100.00;100466.38;5018767;28;20038;-68
2023/12/23 02:16:51;;;;;;;3.15;1.30;;;;;;;7.41;100.00;100467.25;5051466;28;20029;-68
2023/12/23 02:19:17;;;;;;;5.35;1.83;;;;;;;7.41;100.00;100451.84;5056736;28;20068;-69
2023/12/23 02:21:42;;;;;;;3.65;1.45;;;;;;;7.43;100.00;100459.53;5022889;28;20615;-68
2023/12/23 02:24:08;;;;;;;8.10;1.58;;;;;;;7.45;100.00;100439.81;5022081;28;20030;-68
2023/12/23 02:26:36;;;;;;;8.30;1.40;;;;;;;7.49;100.00;100453.50;5019809;28;20042;-68
2023/12/23 02:29:02;;;;;;;6.13;1.55;;;;;;;7.51;100.00;100446.66;5039550;28;20034;-68
2023/12/23 02:31:28;;;;;;;3.50;1.90;;;;;;;7.53;100.00;100450.09;5026016;28;20033;-67
2023/12/23 02:33:54;;;;;;;4.30;1.50;;;;;;;7.53;100.00;100450.97;5024302;28;20534;-67
2023/12/23 02:36:21;;;;;;;7.03;1.48;;;;;;;7.54;100.00;100444.06;5020739;28;20030;-67
2023/12/23 02:38:47;;;;;;;5.30;1.60;;;;;;;7.56;100.00;100448.38;5014947;28;20045;-67
2023/12/23 02:41:13;;;;;;;5.22;1.38;;;;;;;7.56;100.00;100440.66;5018830;28;20038;-68
2023/12/23 02:43:38;;;;;;;3.53;1.60;;;;;;;7.57;100.00;100437.22;5022889;28;20488;-68
2023/12/23 02:46:03;;;;;;;4.85;1.60;;;;;;;7.56;100.00;100429.53;5019904;28;20049;-68
2023/12/23 02:48:29;;;;;;;7.80;1.95;;;;;;;7.58;100.00;100420.06;5022785;28;20045;-68
2023/12/23 02:50:54;;;;;;;11.45;2.03;;;;;;;7.59;100.00;100420.09;5023413;28;20038;-68
2023/12/23 02:53:20;;;;;;;14.18;2.53;;;;;;;7.68;100.00;100406.34;5059171;28;20553;-67
2023/12/23 02:55:45;;;;;;;10.13;2.58;;;;;;;7.83;100.00;100407.13;5030344;28;20021;-67
2023/12/23 02:58:11;;;;;;;11.75;3.08;;;;;;;7.94;100.00;100410.56;5030575;28;20040;-67
2023/12/23 03:00:36;;;;;;;11.77;4.22;;;;;;;8.07;100.00;100405.38;5042099;28;20770;-68
2023/12/23 03:03:02;;;;;;;11.00;3.45;;;;;;;8.19;100.00;100401.00;5032645;28;20064;-67
2023/12/23 03:05:27;;;;;;;14.40;4.05;;;;;;;8.27;100.00;100394.13;5026980;28;20064;-68
2023/12/23 03:07:53;;;;;;;11.55;4.88;;;;;;;8.31;100.00;100394.94;5062298;28;20317;-68
2023/12/23 03:10:19;;;;;;;15.40;4.57;;;;;;;8.38;100.00;100387.19;5030901;28;20037;-67
2023/12/23 03:12:44;;;;;;;13.05;3.90;;;;;;;8.49;100.00;100384.53;5061528;28;20026;-68
2023/12/23 03:15:10;;;;;;;11.68;5.03;;;;;;;8.51;100.00;100388.84;5030788;28;20341;-68
2023/12/23 03:17:35;;;;;;;11.65;4.40;;;;;;;8.60;100.00;100372.47;5023096;28;20037;-68
2023/12/23 03:20:00;;;;;;;18.08;4.60;;;;;;;8.66;100.00;100385.28;5059130;28;20021;-68
2023/12/23 03:22:26;;;;;;;8.77;4.22;;;;;;;8.73;100.00;100379.22;5011381;28;20025;-67
2023/12/23 03:24:51;;;;;;;9.80;4.03;;;;;;;8.79;100.00;100366.28;5024090;28;20026;-68
2023/12/23 03:27:18;;;;;;;8.75;3.30;;;;;;;8.79;100.00;100374.03;5036882;28;20084;-67
2023/12/23 03:29:44;;;;;;;6.95;3.55;;;;;;;8.83;100.00;100362.84;5025858;28;20085;-68
2023/12/23 03:32:10;;;;;;;10.70;3.40;;;;;;;8.84;100.00;100356.78;5044080;28;20029;-68
2023/12/23 03:34:35;;;;;;;12.25;3.83;;;;;;;8.83;100.00;100352.53;5023998;28;20095;-68
2023/12/23 03:37:01;;;;;;;9.05;3.03;;;;;;;8.90;100.00;100353.34;5019647;28;20034;-68
2023/12/23 03:39:26;;;;;;;7.88;3.33;;;;;;;8.91;100.00;100366.19;5020211;28;20047;-68
2023/12/23 03:41:52;;;;;;;11.02;3.40;;;;;;;8.94;100.00;100353.28;5052780;28;20042;-68
2023/12/23 03:44:17;;;;;;;8.45;3.33;;;;;;;8.89;100.00;100334.44;5058905;28;20048;-68
2023/12/23 03:46:42;;;;;;;8.77;3.13;;;;;;;8.87;100.00;100337.91;5025008;28;20073;-68
2023/12/23 03:49:08;;;;;;;10.98;3.00;;;;;;;8.88;100.00;100335.28;5024391;28;20044;-68
2023/12/23 03:51:33;;;;;;;8.48;3.53;;;;;;;8.86;100.00;100336.19;5025648;28;20566;-68
2023/12/23 03:53:59;;;;;;;11.50;3.72;;;;;;;8.89;100.00;100343.88;5039367;28;20045;-68
2023/12/23 03:56:25;;;;;;;8.50;3.00;;;;;;;8.98;100.00;100344.66;5025779;28;20467;-68
2023/12/23 03:58:50;;;;;;;5.47;2.72;;;;;;;8.98;100.00;100331.78;5022749;28;20100;-68
2023/12/23 04:01:17;;;;;;;11.50;3.53;;;;;;;9.03;100.00;100331.72;5054456;28;20131;-68
2023/12/23 04:03:43;;;;;;;7.45;2.60;;;;;;;9.03;100.00;100331.72;5025625;28;20496;-68
2023/12/23 04:06:11;;;;;;;9.68;2.95;;;;;;;8.98;100.00;100339.50;5059027;28;20091;-68
2023/12/23 04:08:39;;;;;;;8.45;2.95;;;;;;;8.94;100.00;100349.84;5025166;28;20662;-68
2023/12/23 04:11:04;;;;;;;8.80;3.00;;;;;;;8.97;100.00;100347.25;5030244;28;20025;-67
2023/12/23 04:13:30;;;;;;;5.00;2.70;;;;;;;9.00;100.00;100335.19;5056635;28;20503;-68
2023/12/23 04:15:55;;;;;;;11.05;3.35;;;;;;;8.93;100.00;100332.69;5025576;28;20036;-68
2023/12/23 04:18:20;;;;;;;9.35;2.67;;;;;;;8.89;100.00;100349.91;5020004;28;20057;-68
2023/12/23 04:20:46;;;;;;;9.63;3.38;;;;;;;8.89;100.00;100343.88;5039585;28;20527;-68
2023/12/23 04:23:12;;;;;;;12.45;3.63;;;;;;;8.88;100.00;100335.28;5053113;28;20022;-68
2023/12/23 04:25:37;;;;;;;9.35;3.28;;;;;;;8.86;100.00;100328.44;5023847;28;22108;-68
2023/12/23 04:28:03;;;;;;;9.05;3.42;;;;;;;8.83;100.00;100320.75;5027687;28;20480;-68
2023/12/23 04:30:29;;;;;;;7.32;3.08;;;;;;;8.85;100.00;100319.84;5040413;28;20444;-68
2023/12/23 04:32:54;;;;;;;10.77;3.72;;;;;;;8.94;100.00;100322.34;5027483;28;20068;-68
2023/12/23 04:35:21;;;;;;;12.43;3.63;;;;;;;8.99;100.00;100317.19;5023221;28;20374;-68
2023/12/23 04:37:46;;;;;;;9.48;3.35;;;;;;;8.97;100.00;100326.63;5032231;28;20043;-68
2023/12/23 04:40:12;;;;;;;12.98;3.55;;;;;;;8.94;100.00;100317.19;5021943;28;20133;-68
2023/12/23 04:42:37;;;;;;;9.00;3.33;;;;;;;8.99;100.00;100333.47;5022585;28;20102;-68
2023/12/23 04:45:03;;;;;;;12.18;3.58;;;;;;;9.05;100.00;100323.09;5058184;28;20069;-68
2023/12/23 04:47:28;;;;;;;10.68;3.20;;;;;;;9.04;100.00;100316.25;5025358;28;20061;-68
2023/12/23 04:49:54;;;;;;;10.93;3.90;;;;;;;9.00;100.00;100322.31;5025459;28;20028;-68
2023/12/23 04:52:20;;;;;;;15.30;3.25;;;;;;;9.00;100.00;100324.03;5024690;28;20174;-68
2023/12/23 04:54:45;;;;;;;10.93;3.10;;;;;;;9.04;100.00;100315.41;5054022;28;20421;-68
2023/12/23 04:57:11;;;;;;;9.15;2.75;;;;;;;9.04;100.00;100312.81;5023771;28;20037;-69
2023/12/23 04:59:36;;;;;;;11.25;3.10;;;;;;;8.99;100.00;100301.72;5040857;28;20079;-68
2023/12/23 05:02:03;;;;;;;8.25;2.70;;;;;;;8.95;100.00;100303.44;5025202;28;20059;-69
2023/12/23 05:04:29;;;;;;;8.38;2.72;;;;;;;8.93;100.00;100302.59;5019767;28;20104;-68
2023/12/23 05:06:57;;;;;;;9.98;2.85;;;;;;;8.95;100.00;100315.47;5018781;28;20045;-69
2023/12/23 05:09:22;;;;;;;11.13;2.47;;;;;;;9.07;100.00;100287.88;5042642;28;20033;-69
2023/12/23 05:11:48;;;;;;;8.65;2.30;;;;;;;9.03;100.00;100287.91;5023117;28;20037;-69
2023/12/23 05:14:13;;;;;;;9.48;2.70;;;;;;;9.03;100.00;100287.91;5023746;28;20568;-69
2023/12/23 05:16:39;;;;;;;9.07;2.30;;;;;;;8.97;100.00;100288.81;5023787;28;20050;-69
2023/12/23 05:19:04;;;;;;;11.95;2.05;;;;;;;9.02;100.00;100281.06;5025117;28;20757;-69
2023/12/23 05:21:30;;;;;;;8.00;2.33;;;;;;;9.09;100.00;100280.97;5017552;28;20510;-69
2023/12/23 05:23:55;;;;;;;4.75;1.63;;;;;;;9.04;100.00;100284.47;5020547;28;20037;-69
2023/12/23 05:26:21;;;;;;;10.18;1.83;;;;;;;9.04;100.00;100280.16;5021756;28;20116;-69
2023/12/23 05:28:46;;;;;;;6.20;1.80;;;;;;;8.96;100.00;100292.25;5056866;28;20053;-69
2023/12/23 05:31:12;;;;;;;8.68;1.83;;;;;;;8.98;100.00;100284.53;5040363;28;20057;-69
2023/12/23 05:33:37;;;;;;;6.32;1.40;;;;;;;9.00;100.00;100283.63;5023569;28;20041;-69
2023/12/23 05:36:03;;;;;;;6.80;1.88;;;;;;;8.95;100.00;100292.28;5056747;28;20041;-69
2023/12/23 05:38:29;;;;;;;6.60;2.42;;;;;;;9.00;100.00;100273.31;5023330;28;20048;-69
2023/12/23 05:40:55;;;;;;;7.53;2.10;;;;;;;8.99;100.00;100274.19;5021010;28;20029;-69
2023/12/23 05:43:21;;;;;;;9.23;1.83;;;;;;;8.97;100.00;100268.19;5025541;28;20025;-69
2023/12/23 05:45:46;;;;;;;8.00;2.35;;;;;;;9.03;100.00;100262.97;5022383;28;20041;-69
2023/12/23 05:48:12;;;;;;;10.65;2.00;;;;;;;9.01;100.00;100264.72;5041674;28;20041;-69
2023/12/23 05:50:37;;;;;;;5.75;2.08;;;;;;;9.04;100.00;100267.28;5019245;28;20098;-69
2023/12/23 05:53:03;;;;;;;7.55;1.88;;;;;;;9.11;100.00;100255.16;5044797;28;20029;-69
2023/12/23 05:55:28;;;;;;;6.65;1.70;;;;;;;9.11;100.00;100256.00;5057820;28;20107;-68
2023/12/23 05:57:54;;;;;;;6.88;1.70;;;;;;;9.18;100.00;100256.81;5024066;28;20033;-68
2023/12/23 06:00:20;;;;;;;7.32;1.85;;;;;;;9.09;100.00;100262.06;5021906;28;20029;-68
2023/12/23 06:02:46;;;;;;;8.45;1.50;;;;;;;9.12;100.00;100273.19;5025675;28;20030;-68
2023/12/23 06:05:11;;;;;;;9.00;1.80;;;;;;;9.08;100.00;100265.50;5010239;28;20032;-68
2023/12/23 06:07:37;;;;;;;5.70;2.05;;;;;;;9.14;100.00;100255.13;5025735;28;20444;-69
2023/12/23 06:10:04;;;;;;;9.43;1.65;;;;;;;9.13;100.00;100254.28;5026842;28;20404;-68
2023/12/23 06:12:29;;;;;;;8.55;1.70;;;;;;;9.10;100.00;100244.00;5023713;28;20049;-68
2023/12/23 06:14:56;;;;;;;5.38;1.55;;;;;;;9.14;100.00;100237.06;5031850;28;20034;-68
2023/12/23 06:17:22;;;;;;;7.53;1.80;;;;;;;9.22;100.00;100255.06;5026109;28;20040;-68
2023/12/23 06:19:47;;;;;;;8.90;1.90;;;;;;;9.23;100.00;100254.19;5045510;28;20029;-67
2023/12/23 06:22:13;;;;;;;9.57;2.20;;;;;;;9.26;100.00;100262.72;5029859;28;20034;-68
2023/12/23 06:24:38;;;;;;;11.98;1.70;;;;;;;9.31;100.00;100263.56;5024415;28;20038;-68
2023/12/23 06:27:04;;;;;;;4.88;1.40;;;;;;;9.39;100.00;100273.75;5027581;28;20061;-68
2023/12/23 06:29:30;;;;;;;11.00;2.15;;;;;;;9.39;100.00;100266.88;5028509;28;20041;-68
2023/12/23 06:31:57;;;;;;;10.32;2.05;;;;;;;9.33;100.00;100274.69;5025506;28;20641;-68
2023/12/23 06:34:22;;;;;;;6.30;2.13;;;;;;;9.37;100.00;100273.81;5026031;28;20492;-67
2023/12/23 06:36:48;;;;;;;5.35;1.65;;;;;;;9.34;100.00;100268.69;5037683;28;20092;-68
2023/12/23 06:39:13;;;;;;;5.53;1.60;;;;;;;9.33;100.00;100266.97;5027208;28;20033;-68
2023/12/23 06:41:39;;;;;;;7.75;1.98;;;;;;;9.32;100.00;100275.56;5010058;28;20038;-68
2023/12/23 06:44:04;;;;;;;5.70;1.42;;;;;;;9.31;100.00;100284.19;5025929;28;20033;-68
2023/12/23 06:46:30;;;;;;;5.07;1.50;;;;;;;9.30;100.00;100277.31;5029749;28;20101;-67
2023/12/23 06:48:55;;;;;;;4.60;1.60;;;;;;;9.29;100.00;100279.91;5027895;28;20048;-67
2023/12/23 06:51:20;;;;;;;5.55;1.20;;;;;;;9.32;100.00;100292.75;5024693;28;20462;-68
2023/12/23 06:53:49;;;;;;;5.82;1.45;;;;;;;9.28;100.00;100284.22;5059290;28;20041;-68
2023/12/23 06:56:15;;;;;;;4.43;1.60;;;;;;;9.26;100.00;100285.09;5027576;28;20539;-68
2023/12/23 06:58:40;;;;;;;8.35;1.38;;;;;;;9.25;100.00;100279.09;5027531;28;20025;-68
2023/12/23 07:01:06;;;;;;;3.42;1.17;;;;;;;9.32;100.00;100287.59;5055133;28;20432;-68
2023/12/23 07:03:31;;;;;;;5.57;1.73;;;;;;;9.34;100.00;100283.28;5058016;28;20041;-68
2023/12/23 07:05:57;;;;;;;3.42;1.20;;;;;;;9.30;100.00;100287.63;5020009;28;20097;-68
2023/12/23 07:08:23;;;;;;;3.30;1.00;;;;;;;9.29;100.00;100282.50;5057847;28;20033;-69
2023/12/23 07:10:49;;;;;;;4.90;1.20;;;;;;;9.33;100.00;100287.59;5026400;28;20044;-68
2023/12/23 07:13:15;;;;;;;3.53;1.10;;;;;;;9.36;100.00;100277.25;5024099;28;20132;-68
2023/12/23 07:15:40;;;;;;;6.85;1.83;;;;;;;9.40;100.00;100271.19;5027056;28;20100;-68
2023/12/23 07:18:06;;;;;;;3.88;1.10;;;;;;;9.43;100.00;100272.88;5056935;28;20417;-67
2023/12/23 07:20:32;;;;;;;4.50;1.23;;;;;;;9.46;100.00;100262.53;5027101;28;20722;-67
2023/12/23 07:22:57;;;;;;;7.88;1.17;;;;;;;9.45;100.00;100276.28;5024783;28;20032;-68
2023/12/23 07:25:23;;;;;;;2.88;0.95;;;;;;;9.41;100.00;100274.59;5025189;28;20071;-67
2023/12/23 07:27:48;;;;;;;2.72;1.40;;;;;;;9.43;100.00;100273.72;5037814;28;20029;-67
2023/12/23 07:30:14;;;;;;;5.72;1.35;;;;;;;9.41;100.00;100272.00;5025704;28;20068;-68
2023/12/23 07:32:40;;;;;;;5.20;1.52;;;;;;;9.40;100.00;100284.09;5025810;28;20053;-67
2023/12/23 07:35:06;;;;;;;5.30;1.63;;;;;;;9.35;100.00;100270.38;5024616;28;20033;-67
2023/12/23 07:37:31;;;;;;;3.20;1.48;;;;;;;9.32;100.00;100277.28;5026864;28;20037;-67
2023/12/23 07:39:57;;;;;;;9.90;1.73;;;;;;;9.34;100.00;100275.56;5027193;28;20113;-67
2023/12/23 07:42:22;;;;;;;5.97;2.15;;;;;;;9.33;100.00;100268.69;5051599;28;20030;-67
2023/12/23 07:44:48;;;;;;;5.85;2.05;;;;;;;9.39;100.00;100273.75;5024826;28;20128;-68
2023/12/23 07:47:13;;;;;;;10.02;2.10;;;;;;;9.35;100.00;100269.50;5047192;28;20370;-68
2023/12/23 07:49:39;;;;;;;4.43;1.63;;;;;;;9.33;100.00;100258.34;5033299;28;20029;-68
2023/12/23 07:52:05;;;;;;;8.60;2.60;;;;;;;9.32;100.00;100285.00;5022451;28;20037;-68
2023/12/23 07:54:31;;;;;;;8.75;2.95;;;;;;;9.38;100.00;100272.91;5027532;28;20523;-67
2023/12/23 07:56:56;;;;;;;7.15;2.20;;;;;;;9.38;100.00;100256.56;5024679;28;20046;-67
2023/12/23 07:59:22;;;;;;;5.00;2.38;;;;;;;9.37;100.00;100270.38;5057009;28;20056;-67
2023/12/23 08:01:47;;;;;;;9.32;2.80;;;;;;;9.38;100.00;100269.47;5019356;28;20091;-67
2023/12/23 08:04:13;;;;;;;10.57;2.65;;;;;;;9.39;100.00;100266.88;5024756;28;20029;-67
2023/12/23 08:06:39;;;;;;;8.35;2.47;;;;;;;9.39;100.00;100277.19;5024144;28;20077;-67
2023/12/23 08:09:05;;;;;;;9.35;2.80;;;;;;;9.42;100.00;100266.00;5060530;28;20025;-67
2023/12/23 08:11:31;;;;;;;6.57;2.60;;;;;;;9.47;100.00;100279.69;5022459;28;20041;-68
2023/12/23 08:13:56;;;;;;;8.77;2.67;;;;;;;9.46;100.00;100280.56;5026610;28;20644;-68
2023/12/23 08:16:21;;;;;;;10.48;2.95;;;;;;;9.51;100.00;100289.97;5024876;28;20041;-68
2023/12/23 08:18:47;;;;;;;10.98;2.03;;;;;;;9.53;100.00;100285.63;5056354;28;20417;-68
2023/12/23 08:21:12;;;;;;;6.65;2.30;;;;;;;9.58;100.00;100275.31;5006387;28;20044;-68
2023/12/23 08:23:38;;;;;;;5.57;2.05;;;;;;;9.61;100.00;100281.25;5053505;28;20037;-68
2023/12/23 08:26:04;;;;;;;7.32;1.92;;;;;;;9.61;100.00;100281.25;5026062;28;20075;-68
2023/12/23 08:28:30;;;;;;;7.97;2.00;;;;;;;9.68;100.00;100276.88;5020775;28;20534;-68
2023/12/23 08:30:55;;;;;;;6.85;2.22;;;;;;;9.67;100.00;100277.78;5028336;28;20040;-68
2023/12/23 08:33:21;;;;;;;8.38;2.30;;;;;;;9.73;100.00;100275.13;5014208;28;20064;-68
2023/12/23 08:35:46;;;;;;;6.78;2.00;;;;;;;9.81;100.00;100277.59;5022284;28;20099;-69
2023/12/23 08:38:12;;;;;;;5.07;2.10;;;;;;;9.77;100.00;100266.44;5059348;28;20033;-70
2023/12/23 08:40:37;;;;;;;8.65;2.50;;;;;;;9.81;100.00;100272.41;5026238;28;20033;-68
2023/12/23 08:43:03;;;;;;;9.38;2.20;;;;;;;9.82;100.00;100289.63;5010020;28;20293;-69
2023/12/23 08:45:28;;;;;;;9.77;2.22;;;;;;;9.85;100.00;100281.84;5019799;28;20129;-69
2023/12/23 08:47:54;;;;;;;7.13;2.55;;;;;;;9.90;100.00;100275.75;5025767;28;20629;-69
2023/12/23 08:50:22;;;;;;;7.07;2.60;;;;;;;9.93;100.00;100280.88;5023756;28;20056;-68
2023/12/23 08:52:48;;;;;;;6.55;2.40;;;;;;;9.93;100.00;100274.84;5026877;28;20048;-68
2023/12/23 08:55:13;;;;;;;7.82;2.72;;;;;;;9.95;100.00;100276.53;5022337;28;20673;-68
2023/12/23 08:57:40;;;;;;;8.65;2.47;;;;;;;9.98;100.00;100273.91;5057536;28;20568;-68
2023/12/23 09:00:06;;;;;;;8.75;2.83;;;;;;;10.01;100.00;100270.41;5027193;28;20025;-67
2023/12/23 09:02:32;;;;;;;8.15;2.42;;;;;;;10.04;100.00;100278.97;5025702;28;20041;-68
2023/12/23 09:04:57;;;;;;;4.75;2.53;;;;;;;10.06;100.00;100269.47;5057724;28;20099;-68
2023/12/23 09:07:22;;;;;;;12.88;3.28;;;;;;;10.08;100.00;100272.06;5058452;28;20036;-68
2023/12/23 09:09:48;;;;;;;6.53;2.50;;;;;;;10.09;100.00;100281.47;5057978;28;20038;-68
2023/12/23 09:12:14;;;;;;;13.18;2.95;;;;;;;10.12;100.00;100266.81;5027089;28;20033;-67
2023/12/23 09:14:39;;;;;;;5.15;2.38;;;;;;;10.17;100.00;100269.34;5023091;28;20516;-68
2023/12/23 09:17:06;;;;;;;5.88;2.38;;;;;;;10.26;100.00;100264.03;5053481;28;20029;-67
2023/12/23 09:19:31;;;;;;;10.55;3.05;;;;;;;10.29;100.00;100294.13;5021914;28;20132;-68
2023/12/23 09:21:57;;;;;;;9.48;2.50;;;;;;;10.36;100.00;100277.66;5037102;28;20137;-68
2023/12/23 09:24:22;;;;;;;8.50;3.35;;;;;;;10.42;99.81;100293.06;5041906;28;20044;-68
2023/12/23 09:26:48;;;;;;;7.15;2.53;;;;;;;10.41;99.68;100291.38;5050805;28;20132;-68
2023/12/23 09:29:13;;;;;;;9.18;2.50;;;;;;;10.44;99.48;100297.34;5041444;28;20029;-68
2023/12/23 09:31:39;;;;;;;6.03;2.30;;;;;;;10.43;99.48;100305.09;5029082;28;20025;-67
2023/12/23 09:34:04;;;;;;;7.53;2.20;;;;;;;10.46;99.51;100312.81;5058957;28;20091;-67
2023/12/23 09:36:30;;;;;;;8.20;2.47;;;;;;;10.44;100.00;100317.16;5004131;28;20505;-67
2023/12/23 09:38:55;;;;;;;5.85;2.35;;;;;;;10.49;98.23;100312.75;5059215;28;20033;-67
2023/12/23 09:41:21;;;;;;;5.38;2.25;;;;;;;10.48;99.21;100304.16;5053392;28;20492;-67
2023/12/23 09:43:49;;;;;;;5.55;2.08;;;;;;;10.44;99.86;100324.91;5058389;28;20408;-68
2023/12/23 09:46:16;;;;;;;11.93;3.08;;;;;;;10.41;99.96;100323.22;5022630;28;20030;-68
2023/12/23 09:48:42;;;;;;;6.40;2.05;;;;;;;10.42;99.35;100316.31;5023598;28;20060;-68
2023/12/23 09:51:08;;;;;;;9.55;1.90;;;;;;;10.45;99.42;100322.28;5024622;28;20053;-68
2023/12/23 09:53:37;;;;;;;9.52;1.92;;;;;;;10.45;98.56;100317.13;5017850;28;20042;-67
2023/12/23 09:56:04;;;;;;;10.15;2.85;;;;;;;10.42;99.74;100327.50;5035251;28;20022;-68
2023/12/23 09:58:29;;;;;;;7.20;2.13;;;;;;;10.40;99.49;100325.81;5029284;28;20041;-68
2023/12/23 10:00:55;;;;;;;6.75;2.35;;;;;;;10.48;98.26;100305.88;5063642;28;20527;-68
2023/12/23 10:03:22;;;;;;;6.15;2.03;;;;;;;10.47;99.13;100346.41;5057840;28;20033;-67
2023/12/23 10:05:47;;;;;;;4.65;1.88;;;;;;;10.54;98.23;100323.88;5031464;28;20087;-68
2023/12/23 10:08:13;;;;;;;6.75;1.92;;;;;;;10.57;97.02;100319.50;5027934;28;20072;-68
2023/12/23 10:10:39;;;;;;;9.60;2.10;;;;;;;10.59;97.52;100347.94;5028302;28;20393;-68
2023/12/23 10:13:04;;;;;;;4.38;1.42;;;;;;;10.56;98.40;100348.84;5054971;28;20042;-69
2023/12/23 10:15:30;;;;;;;4.75;1.48;;;;;;;10.58;97.72;100341.06;5020681;28;20060;-68
2023/12/23 10:17:55;;;;;;;8.13;2.30;;;;;;;10.61;98.18;100339.28;5060877;28;20037;-69
2023/12/23 10:20:21;;;;;;;4.68;1.85;;;;;;;10.64;97.42;100328.91;5060008;28;20171;-69
2023/12/23 10:22:47;;;;;;;5.63;1.65;;;;;;;10.62;98.33;100337.56;5022634;28;20033;-69
2023/12/23 10:25:13;;;;;;;11.43;2.08;;;;;;;10.64;98.26;100340.97;5058766;28;20044;-69
2023/12/23 10:27:43;;;;;;;4.68;1.95;;;;;;;10.59;99.29;100345.34;5025214;28;20038;-69
2023/12/23 10:30:10;;;;;;;7.40;1.75;;;;;;;10.52;100.00;100373.00;5028846;28;20120;-69
2023/12/23 10:32:37;;;;;;;12.27;2.50;;;;;;;10.47;100.00;100355.88;5028113;28;20128;-69
2023/12/23 10:35:06;;;;;;;7.20;1.52;;;;;;;10.43;100.00;100361.94;5028966;28;20029;-69
2023/12/23 10:37:33;;;;;;;7.25;1.80;;;;;;;10.40;100.00;100364.56;5000209;28;20069;-69
2023/12/23 10:40:09;;;;;;;4.72;1.70;;;;;;;10.38;100.00;100345.66;5006785;28;20118;-69
2023/12/23 10:42:37;;;;;;;8.80;1.98;;;;;;;10.33;100.00;100350.06;5021049;28;20061;-69
2023/12/23 10:45:04;;;;;;;7.45;1.92;;;;;;;10.32;100.00;100369.00;5042303;28;20034;-69
2023/12/23 10:47:33;;;;;;;5.75;1.67;;;;;;;10.32;100.00;100353.50;5003055;28;20095;-69
2023/12/23 10:49:59;;;;;;;9.48;1.75;;;;;;;10.31;100.00;100356.94;5001772;28;20061;-69
2023/12/23 10:52:26;;;;;;;5.85;1.60;;;;;;;10.29;100.00;100349.22;5042043;28;20038;-69
2023/12/23 10:54:51;;;;;;;7.22;1.67;;;;;;;10.31;100.00;100351.78;5035337;28;20053;-69
2023/12/23 10:57:18;;;;;;;5.68;1.80;;;;;;;10.32;100.00;100358.66;5020929;28;20034;-69
2023/12/23 10:59:43;;;;;;;9.52;2.30;;;;;;;10.32;100.00;100361.25;5007198;28;20042;-69
2023/12/23 11:02:14;;;;;;;8.82;1.33;;;;;;;10.31;100.00;100364.69;5003640;28;20026;-69
2023/12/23 11:04:42;;;;;;;6.93;1.92;;;;;;;10.33;100.00;100350.06;5009603;28;20417;-69
2023/12/23 11:07:11;;;;;;;5.63;1.63;;;;;;;10.36;100.00;100355.13;5038138;28;20040;-69
2023/12/23 11:09:38;;;;;;;6.40;1.80;;;;;;;10.34;100.00;100350.00;5004811;28;20127;-69
2023/12/23 11:12:04;;;;;;;5.15;1.55;;;;;;;10.32;100.00;100359.53;4996860;28;20039;-69
2023/12/23 11:14:30;;;;;;;5.20;1.48;;;;;;;10.27;100.00;100361.28;5001710;28;20436;-69
2023/12/23 11:16:56;;;;;;;4.45;1.42;;;;;;;10.22;100.00;100357.94;5002757;28;20026;-69